createdAt,value
2017-05-04T00:01:03.505Z,1.76
2017-05-04T00:03:30.733Z,1.60
2017-05-04T00:05:59.253Z,1.22
2017-05-04T00:08:26.865Z,1.76
2017-05-04T00:10:54.005Z,1.38
2017-05-04T00:13:22.237Z,1.30
2017-05-04T00:16:07.301Z,1.30
2017-05-04T00:18:35.461Z,0.90
2017-05-04T00:21:02.606Z,1.38
2017-05-04T00:23:30.860Z,1.20
2017-05-04T00:25:59.086Z,1.66
2017-05-04T00:28:26.285Z,1.50
2017-05-04T00:30:53.461Z,1.68
2017-05-04T00:33:20.595Z,2.38
2017-05-04T00:35:48.099Z,2.44
2017-05-04T00:38:15.297Z,2.98
2017-05-04T00:40:44.186Z,3.04
2017-05-04T00:43:12.353Z,2.48
2017-05-04T00:45:39.490Z,2.52
2017-05-04T00:48:08.385Z,2.96
2017-05-04T00:50:36.586Z,3.52
2017-05-04T00:53:03.726Z,4.32
2017-05-04T00:55:30.902Z,4.30
2017-05-04T00:57:58.358Z,4.08
2017-05-04T01:00:25.530Z,4.00
2017-05-04T01:02:53.710Z,4.72
2017-05-04T01:05:21.247Z,3.66
2017-05-04T01:07:49.184Z,7.08
2017-05-04T01:10:16.358Z,4.70
2017-05-04T01:12:43.822Z,4.64
2017-05-04T01:15:10.949Z,4.72
2017-05-04T01:17:38.089Z,4.20
2017-05-04T01:20:05.584Z,3.78
2017-05-04T01:22:32.713Z,5.02
2017-05-04T01:24:59.870Z,4.90
2017-05-04T01:27:30.041Z,5.64
2017-05-04T01:29:57.238Z,5.22
2017-05-04T01:32:25.476Z,5.70
2017-05-04T01:34:52.980Z,5.16
2017-05-04T01:37:20.145Z,6.32
2017-05-04T01:39:47.303Z,6.18
2017-05-04T01:42:15.528Z,6.16
2017-05-04T01:44:42.677Z,5.76
2017-05-04T01:47:09.817Z,5.74
2017-05-04T01:49:37.306Z,6.30
2017-05-04T01:52:04.457Z,6.88
2017-05-04T01:54:32.632Z,5.24
2017-05-04T01:57:00.778Z,5.76
2017-05-04T01:59:27.940Z,4.58
2017-05-04T02:01:55.094Z,4.94
2017-05-04T02:04:22.569Z,3.82
2017-05-04T02:06:49.737Z,4.86
2017-05-04T02:09:18.684Z,5.18
2017-05-04T02:11:46.882Z,4.72
2017-05-04T02:14:14.018Z,5.28
2017-05-04T02:16:41.190Z,5.64
2017-05-04T02:19:08.634Z,4.74
2017-05-04T02:21:35.773Z,4.62
2017-05-04T02:24:03.969Z,4.90
2017-05-04T02:26:31.501Z,6.38
2017-05-04T02:28:59.937Z,4.94
2017-05-04T02:31:27.091Z,5.68
2017-05-04T02:33:55.253Z,5.32
2017-05-04T02:36:23.155Z,4.38
2017-05-04T02:38:51.516Z,4.98
2017-05-04T02:41:18.752Z,5.34
2017-05-04T02:43:45.894Z,5.86
2017-05-04T02:46:14.298Z,4.52
2017-05-04T02:48:41.452Z,4.80
2017-05-04T02:51:08.608Z,5.16
2017-05-04T02:53:36.090Z,4.84
2017-05-04T02:56:03.232Z,4.98
2017-05-04T02:58:30.377Z,4.40
2017-05-04T03:00:58.829Z,5.04
2017-05-04T03:03:25.970Z,4.95
2017-05-04T03:05:53.150Z,5.30
2017-05-04T03:08:22.194Z,5.26
2017-05-04T03:10:50.074Z,4.92
2017-05-04T03:13:17.956Z,5.52
2017-05-04T03:15:45.463Z,6.14
2017-05-04T03:18:13.357Z,5.96
2017-05-04T03:20:41.233Z,6.98
2017-05-04T03:23:12.481Z,6.16
2017-05-04T03:25:39.650Z,5.72
2017-05-04T03:28:07.623Z,5.44
2017-05-04T03:30:35.942Z,6.24
2017-05-04T03:33:03.087Z,5.50
2017-05-04T03:35:30.236Z,7.00
2017-05-04T03:37:57.786Z,6.22
2017-05-04T03:40:24.930Z,7.06
2017-05-04T03:42:52.078Z,5.78
2017-05-04T03:45:19.533Z,8.10
2017-05-04T03:47:46.703Z,6.02
2017-05-04T03:50:13.874Z,5.48
2017-05-04T03:52:42.110Z,5.18
2017-05-04T03:55:09.256Z,6.82
2017-05-04T03:57:36.406Z,5.00
2017-05-04T04:00:03.861Z,5.34
2017-05-04T04:02:32.035Z,7.54
2017-05-04T04:04:59.191Z,5.26
2017-05-04T04:07:26.642Z,5.40
2017-05-04T04:09:54.802Z,5.12
2017-05-04T04:12:21.947Z,5.38
2017-05-04T04:14:49.425Z,6.54
2017-05-04T04:17:16.550Z,4.80
2017-05-04T04:19:43.690Z,5.84
2017-05-04T04:22:11.902Z,5.38
2017-05-04T04:24:39.762Z,5.08
2017-05-04T04:27:07.798Z,5.16
2017-05-04T04:29:35.284Z,5.80
2017-05-04T04:32:02.421Z,5.26
2017-05-04T04:34:29.612Z,5.82
2017-05-04T04:36:56.733Z,5.10
2017-05-04T04:39:23.888Z,5.06
2017-05-04T04:41:51.329Z,4.22
2017-05-04T04:44:18.481Z,4.54
2017-05-04T04:46:45.614Z,5.74
2017-05-04T04:49:14.109Z,5.60
2017-05-04T04:51:41.254Z,3.46
2017-05-04T04:54:08.414Z,4.36
2017-05-04T04:56:35.869Z,4.18
2017-05-04T04:59:03.017Z,4.88
2017-05-04T05:01:30.162Z,3.32
2017-05-04T05:03:57.623Z,4.80
2017-05-04T05:06:25.769Z,3.86
2017-05-04T05:08:52.894Z,4.06
2017-05-04T05:11:21.086Z,3.54
2017-05-04T05:13:48.237Z,4.08
2017-05-04T05:16:15.383Z,3.08
2017-05-04T05:18:42.878Z,3.50
2017-05-04T05:21:10.013Z,3.00
2017-05-04T05:23:37.162Z,3.60
2017-05-04T05:26:05.318Z,3.74
2017-05-04T05:28:32.522Z,3.24
2017-05-04T05:31:01.279Z,3.38
2017-05-04T05:33:29.757Z,2.66
2017-05-04T05:35:57.186Z,3.16
2017-05-04T05:38:24.370Z,3.14
2017-05-04T05:40:54.386Z,2.96
2017-05-04T05:43:21.529Z,3.04
2017-05-04T05:45:48.653Z,5.86
2017-05-04T05:48:17.333Z,2.50
2017-05-04T05:50:44.726Z,2.64
2017-05-04T05:53:11.869Z,3.92
2017-05-04T05:55:39.530Z,3.72
2017-05-04T05:58:06.697Z,2.68
2017-05-04T06:00:33.833Z,5.04
2017-05-04T06:03:02.040Z,2.60
2017-05-04T06:05:29.928Z,4.92
2017-05-04T06:07:58.990Z,2.96
2017-05-04T06:10:30.907Z,6.70
2017-05-04T06:12:59.057Z,2.66
2017-05-04T06:15:26.190Z,2.20
2017-05-04T06:17:55.853Z,2.74
2017-05-04T06:20:22.985Z,2.74
2017-05-04T06:22:52.207Z,3.42
2017-05-04T06:28:04.134Z,2.62
2017-05-04T06:30:39.230Z,2.34
2017-05-04T06:33:10.984Z,2.48
2017-05-04T06:35:38.125Z,1.74
2017-05-04T06:38:05.614Z,2.54
2017-05-04T06:40:32.751Z,2.50
2017-05-04T06:42:59.895Z,1.68
2017-05-04T06:45:28.125Z,3.52
2017-05-04T06:47:55.994Z,2.50
2017-05-04T06:50:24.131Z,1.92
2017-05-04T06:52:59.073Z,1.44
2017-05-04T06:55:31.315Z,1.46
2017-05-04T06:57:59.714Z,1.38
2017-05-04T07:00:26.853Z,1.72
2017-05-04T07:02:54.020Z,1.80
2017-05-04T07:05:21.461Z,1.92
2017-05-04T07:07:48.622Z,2.30
2017-05-04T07:10:15.754Z,3.08
2017-05-04T07:12:44.233Z,1.64
2017-05-04T07:15:11.373Z,2.02
2017-05-04T07:17:38.511Z,1.70
2017-05-04T07:20:06.013Z,1.82
2017-05-04T07:22:33.223Z,2.22
2017-05-04T07:25:00.360Z,2.64
2017-05-04T07:27:27.846Z,2.10
2017-05-04T07:29:54.981Z,1.80
2017-05-04T07:32:22.130Z,5.50
2017-05-04T07:34:50.397Z,2.24
2017-05-04T07:37:17.553Z,2.40
2017-05-04T07:39:44.702Z,9.74
2017-05-04T07:42:13.205Z,1.58
2017-05-04T07:44:40.330Z,2.48
2017-05-04T07:47:07.479Z,2.54
2017-05-04T07:49:35.982Z,3.24
2017-05-04T07:52:03.123Z,3.82
2017-05-04T07:54:31.261Z,4.06
2017-05-04T07:56:58.866Z,4.80
2017-05-04T07:59:26.018Z,5.08
2017-05-04T08:01:53.166Z,6.70
2017-05-04T08:04:21.895Z,12.56
2017-05-04T08:06:49.093Z,6.82
2017-05-04T08:09:18.365Z,5.02
2017-05-04T08:11:45.869Z,4.82
2017-05-04T08:14:13.021Z,4.34
2017-05-04T08:16:40.161Z,4.60
2017-05-04T08:19:07.620Z,6.46
2017-05-04T08:21:34.757Z,4.84
2017-05-04T08:24:04.018Z,6.54
2017-05-04T08:26:32.532Z,4.92
2017-05-04T08:28:59.663Z,7.34
2017-05-04T08:31:26.870Z,5.18
2017-05-04T08:33:54.390Z,5.02
2017-05-04T08:36:22.558Z,4.48
2017-05-04T08:38:49.709Z,5.34
2017-05-04T08:41:17.178Z,5.66
2017-05-04T08:43:44.306Z,6.30
2017-05-04T08:46:11.449Z,4.28
2017-05-04T08:48:39.854Z,4.52
2017-05-04T08:51:07.009Z,5.12
2017-05-04T08:53:34.163Z,5.34
2017-05-04T08:56:01.602Z,5.58
2017-05-04T08:58:28.757Z,6.02
2017-05-04T09:00:55.901Z,4.30
2017-05-04T09:03:24.176Z,5.04
2017-05-04T09:05:51.325Z,5.58
2017-05-04T09:08:18.482Z,5.68
2017-05-04T09:10:45.942Z,5.30
2017-05-04T09:13:13.090Z,4.00
2017-05-04T09:15:40.209Z,3.98
2017-05-04T09:18:07.694Z,5.12
2017-05-04T09:20:34.836Z,4.46
2017-05-04T09:23:02.130Z,4.02
2017-05-04T09:25:31.220Z,4.86
2017-05-04T09:27:58.389Z,5.18
2017-05-04T09:30:26.257Z,4.62
2017-05-04T09:32:53.754Z,6.10
2017-05-04T09:35:20.899Z,5.60
2017-05-04T09:37:48.035Z,5.14
2017-05-04T09:40:15.614Z,6.56
2017-05-04T09:42:42.755Z,6.56
2017-05-04T09:45:09.915Z,6.06
2017-05-04T09:47:38.070Z,4.98
2017-05-04T09:50:05.271Z,6.22
2017-05-04T09:52:33.169Z,5.66
2017-05-04T09:55:00.867Z,8.34
2017-05-04T09:57:28.777Z,10.92
2017-05-04T09:59:56.638Z,6.48
2017-05-04T10:02:25.086Z,7.38
2017-05-04T10:04:52.232Z,8.02
2017-05-04T10:07:20.373Z,6.92
2017-05-04T10:09:47.865Z,7.52
2017-05-04T10:12:14.993Z,8.98
2017-05-04T10:14:42.146Z,7.40
2017-05-04T10:17:09.621Z,7.70
2017-05-04T10:19:36.763Z,7.18
2017-05-04T10:22:04.133Z,6.82
2017-05-04T10:24:31.669Z,8.22
2017-05-04T10:26:58.802Z,9.32
2017-05-04T10:29:25.920Z,7.88
2017-05-04T10:31:54.141Z,9.92
2017-05-04T10:34:21.291Z,8.40
2017-05-04T10:36:48.432Z,5.50
2017-05-04T10:39:15.897Z,7.24
2017-05-04T10:41:43.045Z,7.22
2017-05-04T10:44:10.179Z,7.26
2017-05-04T10:46:38.506Z,9.38
2017-05-04T10:49:06.397Z,7.96
2017-05-04T10:51:34.561Z,7.78
2017-05-04T10:54:03.587Z,8.38
2017-05-04T10:56:30.722Z,8.44
2017-05-04T10:58:57.857Z,9.64
2017-05-04T11:01:26.081Z,8.58
2017-05-04T11:03:53.210Z,8.04
2017-05-04T11:06:20.358Z,8.92
2017-05-04T11:08:48.609Z,9.84
2017-05-04T11:11:15.757Z,8.68
2017-05-04T11:13:43.625Z,10.10
2017-05-04T11:16:11.126Z,11.80
2017-05-04T11:18:38.282Z,10.56
2017-05-04T11:21:05.405Z,10.46
2017-05-04T11:23:33.605Z,11.24
2017-05-04T11:26:00.880Z,9.24
2017-05-04T11:28:28.178Z,10.50
2017-05-04T11:30:55.769Z,11.18
2017-05-04T11:33:22.895Z,12.02
2017-05-04T11:35:50.029Z,10.88
2017-05-04T11:38:17.517Z,10.24
2017-05-04T11:40:44.642Z,12.18
2017-05-04T11:43:11.781Z,11.02
2017-05-04T11:45:39.971Z,11.36
2017-05-04T11:48:07.211Z,10.04
2017-05-04T11:50:34.346Z,9.88
2017-05-04T11:53:01.843Z,8.98
2017-05-04T11:55:28.987Z,10.68
2017-05-04T11:57:57.178Z,13.70
2017-05-04T12:00:24.622Z,11.82
2017-05-04T12:02:51.784Z,10.84
2017-05-04T12:05:18.925Z,9.76
2017-05-04T12:07:47.404Z,9.56
2017-05-04T12:10:15.538Z,12.48
2017-05-04T12:12:42.665Z,11.52
2017-05-04T12:15:11.625Z,12.88
2017-05-04T12:17:38.749Z,11.58
2017-05-04T12:20:05.899Z,9.14
2017-05-04T12:22:33.369Z,9.48
2017-05-04T12:25:00.491Z,11.16
2017-05-04T12:27:28.837Z,8.62
2017-05-04T12:29:56.356Z,9.32
2017-05-04T12:32:23.505Z,11.16
2017-05-04T12:34:50.647Z,11.82
2017-05-04T12:37:18.105Z,9.34
2017-05-04T12:39:45.238Z,10.10
2017-05-04T12:42:12.401Z,10.64
2017-05-04T12:44:39.876Z,8.12
2017-05-04T12:47:07.037Z,7.92
2017-05-04T12:49:34.189Z,8.08
2017-05-04T12:52:01.716Z,8.20
2017-05-04T12:54:28.866Z,8.14
2017-05-04T12:56:56.007Z,7.38
2017-05-04T12:59:23.470Z,8.28
2017-05-04T13:01:50.594Z,9.64
2017-05-04T13:04:17.748Z,7.64
2017-05-04T13:06:46.022Z,9.26
2017-05-04T13:09:13.153Z,9.00
2017-05-04T13:11:40.289Z,9.08
2017-05-04T13:14:08.535Z,8.16
2017-05-04T13:16:35.665Z,8.54
2017-05-04T13:19:09.124Z,7.62
2017-05-04T13:21:37.653Z,7.00
2017-05-04T13:24:04.790Z,9.12
2017-05-04T13:26:31.924Z,8.84
2017-05-04T13:29:01.350Z,8.42
2017-05-04T13:31:29.482Z,8.04
2017-05-04T13:33:56.631Z,8.20
2017-05-04T13:36:24.050Z,8.30
2017-05-04T13:38:51.205Z,15.52
2017-05-04T13:41:18.348Z,8.12
2017-05-04T13:43:46.634Z,9.76
2017-05-04T13:46:13.774Z,8.46
2017-05-04T13:48:40.902Z,9.40
2017-05-04T13:51:09.379Z,11.62
2017-05-04T13:53:36.521Z,11.98
2017-05-04T13:56:03.661Z,14.86
2017-05-04T13:58:31.151Z,12.56
2017-05-04T14:00:58.325Z,14.60
2017-05-04T14:03:26.238Z,14.20
2017-05-04T14:05:53.708Z,13.38
2017-05-04T14:08:20.872Z,13.90
2017-05-04T14:10:48.014Z,15.42
2017-05-04T14:13:15.461Z,14.94
2017-05-04T14:15:42.590Z,14.18
2017-05-04T14:18:09.742Z,14.58
2017-05-04T14:20:38.042Z,13.42
2017-05-04T14:23:05.179Z,10.16
2017-05-04T14:25:33.377Z,9.86
2017-05-04T14:28:04.922Z,9.82
2017-05-04T14:30:33.377Z,10.10
2017-05-04T14:33:00.508Z,8.30
2017-05-04T14:35:28.833Z,9.32
2017-05-04T14:37:55.974Z,8.12
2017-05-04T14:40:23.143Z,8.14
2017-05-04T14:42:50.675Z,10.24
2017-05-04T14:45:17.850Z,8.02
2017-05-04T14:47:46.009Z,9.22
2017-05-04T14:50:13.457Z,9.12
2017-05-04T14:52:40.602Z,9.22
2017-05-04T14:55:08.957Z,8.40
2017-05-04T14:57:36.441Z,10.86
2017-05-04T15:00:03.585Z,10.70
2017-05-04T15:02:31.096Z,6.60
2017-05-04T15:04:59.738Z,5.48
2017-05-04T15:07:26.885Z,5.54
2017-05-04T15:09:54.033Z,5.30
2017-05-04T15:12:21.498Z,5.16
2017-05-04T15:14:48.647Z,4.18
2017-05-04T15:17:15.777Z,3.22
2017-05-04T15:19:43.241Z,3.96
2017-05-04T15:22:10.390Z,4.24
2017-05-04T15:24:38.525Z,4.10
2017-05-04T15:27:06.337Z,4.06
2017-05-04T15:29:35.381Z,3.92
2017-05-04T15:32:03.571Z,3.82
2017-05-04T15:34:30.961Z,4.52
2017-05-04T15:36:58.081Z,4.56
2017-05-04T15:39:25.223Z,4.74
2017-05-04T15:41:52.705Z,4.44
2017-05-04T15:44:19.853Z,4.60
2017-05-04T15:46:46.982Z,6.08
2017-05-04T15:49:14.389Z,5.72
2017-05-04T15:51:41.538Z,4.94
2017-05-04T15:54:08.673Z,7.28
2017-05-04T15:56:36.913Z,5.82
2017-05-04T15:59:04.059Z,5.92
2017-05-04T16:01:31.197Z,6.54
2017-05-04T16:03:58.683Z,5.18
2017-05-04T16:06:25.831Z,5.16
2017-05-04T16:08:52.997Z,5.64
2017-05-04T16:11:21.171Z,4.42
2017-05-04T16:13:48.318Z,5.72
2017-05-04T16:16:15.471Z,4.72
2017-05-04T16:18:42.906Z,4.86
2017-05-04T16:21:10.848Z,13.22
2017-05-04T16:23:38.788Z,46.48
2017-05-04T16:26:06.661Z,6.72
2017-05-04T16:28:33.790Z,6.68
2017-05-04T16:31:02.242Z,5.72
2017-05-04T16:33:29.374Z,4.66
2017-05-04T16:35:57.513Z,4.18
2017-05-04T16:38:26.558Z,6.62
2017-05-04T16:40:53.711Z,5.40
2017-05-04T16:43:20.841Z,2.66
2017-05-04T16:45:48.312Z,2.66
2017-05-04T16:48:15.453Z,3.02
2017-05-04T16:50:43.654Z,4.10
2017-05-04T16:53:11.119Z,3.00
2017-05-04T16:55:39.005Z,6.04
2017-05-04T16:58:06.157Z,4.44
2017-05-04T17:00:33.657Z,8.60
2017-05-04T17:03:00.793Z,13.30
2017-05-04T17:05:27.927Z,25.84
2017-05-04T17:07:55.349Z,27.08
2017-05-04T17:10:23.517Z,17.64
2017-05-04T17:12:51.398Z,10.30
2017-05-04T17:15:19.625Z,17.76
2017-05-04T17:17:46.777Z,17.22
2017-05-04T17:20:13.912Z,40.06
2017-05-04T17:22:41.383Z,23.92
2017-05-04T17:25:08.681Z,67.82
2017-05-04T17:27:35.902Z,15.50
2017-05-04T17:30:04.161Z,16.54
2017-05-04T17:32:31.298Z,12.86
2017-05-04T17:34:58.445Z,4.50
2017-05-04T17:37:25.915Z,4.20
2017-05-04T17:39:53.049Z,7.14
2017-05-04T17:42:20.209Z,5.58
2017-05-04T17:44:47.810Z,8.94
2017-05-04T17:47:15.689Z,6.22
2017-05-04T17:49:43.629Z,6.14
2017-05-04T17:52:11.168Z,6.10
2017-05-04T17:54:38.326Z,7.84
2017-05-04T17:57:05.473Z,6.82
2017-05-04T17:59:33.026Z,10.58
2017-05-04T18:02:00.161Z,10.68
2017-05-04T18:04:27.302Z,14.54
2017-05-04T18:06:55.698Z,12.38
2017-05-04T18:09:22.858Z,7.60
2017-05-04T18:11:50.013Z,8.72
2017-05-04T18:14:17.461Z,6.54
2017-05-04T18:16:45.342Z,12.42
2017-05-04T18:19:12.484Z,6.36
2017-05-04T18:21:39.893Z,7.92
2017-05-04T18:26:42.491Z,7.42
2017-05-04T18:29:09.705Z,9.60
2017-05-04T18:31:36.910Z,8.94
2017-05-04T18:34:05.296Z,8.34
2017-05-04T18:36:32.438Z,14.58
2017-05-04T18:38:59.586Z,11.22
2017-05-04T18:41:27.049Z,9.94
2017-05-04T18:43:54.183Z,12.24
2017-05-04T18:46:22.261Z,11.14
2017-05-04T18:48:50.744Z,12.08
2017-05-04T18:51:18.785Z,11.06
2017-05-04T18:53:45.950Z,12.04
2017-05-04T18:56:14.286Z,9.26
2017-05-04T18:58:42.158Z,12.20
2017-05-04T19:01:10.034Z,8.76
2017-05-04T19:03:37.542Z,8.86
2017-05-04T19:06:05.690Z,7.98
2017-05-04T19:08:32.853Z,8.32
2017-05-04T19:11:00.319Z,7.54
2017-05-04T19:13:27.458Z,6.56
2017-05-04T19:15:56.846Z,6.52
2017-05-04T19:18:25.056Z,4.58
2017-05-04T19:20:52.968Z,5.22
2017-05-04T19:23:22.468Z,4.08
2017-05-04T19:25:52.049Z,4.28
2017-05-04T19:28:25.330Z,4.22
2017-05-04T19:30:53.586Z,4.04
2017-05-04T19:33:20.729Z,4.16
2017-05-04T19:35:49.894Z,3.70
2017-05-04T19:38:17.398Z,4.96
2017-05-04T19:40:44.541Z,4.14
2017-05-04T19:43:11.677Z,2.68
2017-05-04T19:45:39.152Z,2.96
2017-05-04T19:48:06.302Z,2.62
2017-05-04T19:50:33.438Z,2.46
2017-05-04T19:53:00.906Z,1.60
2017-05-04T19:55:28.058Z,1.70
2017-05-04T19:57:55.194Z,2.10
2017-05-04T20:00:22.649Z,2.30
2017-05-04T20:02:49.793Z,2.42
2017-05-04T20:05:16.929Z,4.06
2017-05-04T20:07:44.406Z,2.16
2017-05-04T20:10:12.566Z,2.82
2017-05-04T20:12:39.724Z,2.30
2017-05-04T20:15:08.124Z,2.60
2017-05-04T20:17:35.284Z,2.52
2017-05-04T20:20:02.429Z,2.54
2017-05-04T20:22:30.315Z,2.24
2017-05-04T20:24:57.650Z,2.50
2017-05-04T20:27:24.854Z,2.72
2017-05-04T20:29:52.287Z,2.66
2017-05-04T20:32:20.167Z,3.44
2017-05-04T20:34:47.329Z,2.88
2017-05-04T20:37:15.537Z,3.00
2017-05-04T20:39:42.674Z,2.84
2017-05-04T20:42:09.877Z,3.00
2017-05-04T20:44:37.395Z,3.12
2017-05-04T20:47:04.542Z,2.78
2017-05-04T20:49:31.699Z,3.88
2017-05-04T20:51:59.145Z,3.08
2017-05-04T20:54:26.297Z,2.62
2017-05-04T20:56:54.237Z,3.36
2017-05-04T20:59:21.406Z,2.36
2017-05-04T21:01:48.553Z,3.24
2017-05-04T21:04:15.729Z,2.52
2017-05-04T21:06:42.869Z,3.26
2017-05-04T21:09:10.426Z,1.94
2017-05-04T21:11:37.565Z,2.38
2017-05-04T21:14:04.703Z,2.88
2017-05-04T21:16:32.166Z,2.88
2017-05-04T21:19:03.234Z,2.42
2017-05-04T21:21:31.389Z,2.68
2017-05-04T21:23:59.578Z,2.46
2017-05-04T21:26:27.466Z,2.50
2017-05-04T21:28:55.674Z,2.30
2017-05-04T21:31:23.128Z,1.88
2017-05-04T21:33:50.285Z,2.12
2017-05-04T21:36:17.493Z,2.54
2017-05-04T21:38:45.720Z,2.00
2017-05-04T21:41:13.869Z,2.22
2017-05-04T21:43:40.998Z,2.60
2017-05-04T21:46:10.160Z,2.14
2017-05-04T21:48:37.305Z,2.96
2017-05-04T21:51:04.428Z,2.36
2017-05-04T21:53:31.899Z,2.76
2017-05-04T21:58:33.165Z,3.12
2017-05-04T22:01:01.389Z,3.04
2017-05-04T22:03:28.525Z,3.54
2017-05-04T22:05:57.497Z,3.40
2017-05-04T22:08:24.643Z,2.88
2017-05-04T22:10:51.773Z,3.64
2017-05-04T22:13:19.225Z,3.28
2017-05-04T22:15:46.357Z,3.72
2017-05-04T22:18:14.569Z,3.54
2017-05-04T22:20:42.011Z,3.94
2017-05-04T22:23:12.859Z,3.72
2017-05-04T22:25:41.669Z,3.92
2017-05-04T22:28:09.182Z,3.40
2017-05-04T22:30:36.323Z,3.48
2017-05-04T22:33:03.453Z,3.96
2017-05-04T22:35:31.637Z,2.90
2017-05-04T22:37:58.794Z,4.54
2017-05-04T22:40:25.946Z,4.86
2017-05-04T22:42:53.416Z,4.26
2017-05-04T22:45:20.557Z,3.78
2017-05-04T22:47:48.717Z,4.38
2017-05-04T22:50:16.149Z,3.74
2017-05-04T22:52:45.033Z,4.42
2017-05-04T22:55:12.933Z,4.24
2017-05-04T22:57:40.419Z,4.28
2017-05-04T23:00:07.585Z,3.90
2017-05-04T23:02:34.770Z,4.48
2017-05-04T23:05:02.186Z,4.92
2017-05-04T23:07:29.321Z,4.74
2017-05-04T23:09:56.489Z,5.22
2017-05-04T23:12:24.642Z,5.04
2017-05-04T23:14:51.781Z,4.82
2017-05-04T23:17:18.949Z,4.10
2017-05-04T23:19:46.393Z,4.38
2017-05-04T23:22:13.541Z,4.18
2017-05-04T23:24:40.697Z,4.24
2017-05-04T23:27:08.246Z,4.94
2017-05-04T23:29:35.393Z,4.20
2017-05-04T23:32:03.070Z,4.30
2017-05-04T23:34:30.514Z,3.52
2017-05-04T23:36:57.645Z,5.02
2017-05-04T23:39:24.791Z,4.48
2017-05-04T23:41:52.281Z,4.48
2017-05-04T23:44:21.215Z,4.58
2017-05-04T23:46:48.404Z,4.36
2017-05-04T23:49:15.879Z,4.08
2017-05-04T23:51:43.017Z,3.96
2017-05-04T23:54:10.187Z,5.22
2017-05-04T23:56:37.623Z,4.33
2017-05-04T23:59:04.757Z,4.84
